Terminal Aerodrome Forecast
Issued by NWS Wilmington, OH

Home | Current Version | Previous Version | Text Only | Print | Product List | Glossary On
Versions: 1 2 3 4 5 6 7 8 9 10 11 12 13 14 15 16 17 18 19 20
000
FTUS41 KILN 191700
TAFILN
TAF
KILN 191726Z 1918/2018 11010KT P6SM FEW050
     FM192300 15005KT P6SM SKC
     FM201000 17008KT P6SM BKN040
     FM201400 21012G20KT P6SM BKN050=

USA.gov is the U.S. government's official web portal to all federal, state and local government web resources and services.